createdAt,value
2019-05-17T00:00:16.858Z,99.99
2019-05-17T00:03:17.041Z,99.99
2019-05-17T00:06:16.838Z,99.99
2019-05-17T00:09:17.557Z,99.99
2019-05-17T00:12:16.672Z,99.99
2019-05-17T00:15:16.988Z,99.99
2019-05-17T00:18:17.165Z,99.99
2019-05-17T00:21:16.992Z,99.99
2019-05-17T00:24:18.350Z,99.99
2019-05-17T00:27:17.204Z,99.99
2019-05-17T00:30:17.571Z,99.99
2019-05-17T00:33:17.014Z,99.99
2019-05-17T00:36:17.826Z,99.99
2019-05-17T00:39:16.678Z,99.99
2019-05-17T00:42:17.073Z,99.99
2019-05-17T00:45:17.648Z,99.99
2019-05-17T00:48:17.110Z,99.99
2019-05-17T00:51:16.731Z,99.99
2019-05-17T00:54:23.594Z,99.99
2019-05-17T00:57:16.597Z,99.99
2019-05-17T01:00:17.072Z,99.99
2019-05-17T01:03:16.269Z,99.99
2019-05-17T01:06:16.928Z,99.99
2019-05-17T01:09:17.061Z,99.99
2019-05-17T01:12:16.459Z,99.99
2019-05-17T01:15:16.793Z,99.99
2019-05-17T01:18:16.246Z,99.99
2019-05-17T01:21:16.891Z,99.88
2019-05-17T01:24:17.323Z,99.99
2019-05-17T01:27:17.189Z,99.99
2019-05-17T01:30:17.505Z,99.99
2019-05-17T01:33:17.080Z,99.99
2019-05-17T01:36:17.341Z,99.99
2019-05-17T01:39:20.654Z,99.67
2019-05-17T01:42:17.149Z,99.99
2019-05-17T01:45:16.717Z,99.99
2019-05-17T01:48:16.410Z,99.99
2019-05-17T01:51:16.935Z,99.99
2019-05-17T01:54:17.359Z,99.99
2019-05-17T01:57:16.806Z,99.99
2019-05-17T02:00:17.467Z,99.99
2019-05-17T02:03:17.196Z,99.99
2019-05-17T02:06:16.522Z,99.99
2019-05-17T02:09:32.276Z,99.99
2019-05-17T02:12:17.284Z,99.99
2019-05-17T02:15:16.420Z,99.99
2019-05-17T02:18:17.214Z,99.99
2019-05-17T02:21:16.859Z,99.99
2019-05-17T02:24:16.927Z,99.99
2019-05-17T02:27:14.976Z,99.99
2019-05-17T02:30:15.077Z,99.99
2019-05-17T02:33:14.904Z,99.98
2019-05-17T02:36:14.865Z,99.99
2019-05-17T02:39:14.841Z,99.99
2019-05-17T02:42:14.780Z,99.99
2019-05-17T02:45:14.777Z,99.99
2019-05-17T02:48:14.743Z,99.99
2019-05-17T02:51:14.707Z,99.99
2019-05-17T02:54:14.700Z,99.99
2019-05-17T02:57:14.623Z,99.99
2019-05-17T03:00:14.630Z,99.99
2019-05-17T03:03:14.595Z,99.99
2019-05-17T03:06:14.543Z,99.99
2019-05-17T03:09:14.518Z,99.99
2019-05-17T03:12:14.465Z,99.99
2019-05-17T03:15:14.446Z,99.99
2019-05-17T03:18:14.439Z,99.57
2019-05-17T03:21:14.376Z,99.88
2019-05-17T03:24:14.365Z,99.99
2019-05-17T03:27:14.320Z,99.88
2019-05-17T03:30:18.702Z,99.67
2019-05-17T03:33:16.051Z,99.88
2019-05-17T03:36:16.766Z,99.88
2019-05-17T03:39:14.217Z,99.57
2019-05-17T03:42:14.164Z,99.99
2019-05-17T03:45:14.318Z,99.98
2019-05-17T03:48:14.106Z,99.83
2019-05-17T03:51:14.080Z,99.47
2019-05-17T03:54:14.156Z,99.11
2019-05-17T03:57:14.021Z,99.47
2019-05-17T04:00:14.083Z,99.11
2019-05-17T04:03:13.976Z,98.19
2019-05-17T04:06:13.918Z,96.85
2019-05-17T04:09:14.268Z,96.85
2019-05-17T04:12:13.921Z,97.16
2019-05-17T04:15:14.052Z,97.06
2019-05-17T04:18:13.771Z,96.34
2019-05-17T04:21:13.761Z,96.03
2019-05-17T04:24:13.709Z,98.39
2019-05-17T04:27:13.863Z,97.57
2019-05-17T04:30:13.717Z,94.65
2019-05-17T04:33:13.641Z,94.65
2019-05-17T04:36:13.602Z,93.21
2019-05-17T04:39:13.743Z,93.32
2019-05-17T04:42:13.846Z,93.12
2019-05-17T04:45:13.543Z,93.36
2019-05-17T04:48:13.564Z,94.39
2019-05-17T04:51:13.538Z,93.52
2019-05-17T04:54:13.838Z,95.06
2019-05-17T04:57:13.415Z,94.45
2019-05-17T05:00:13.517Z,94.34
2019-05-17T05:03:13.322Z,95.32
2019-05-17T05:06:13.658Z,94.81
2019-05-17T05:09:13.262Z,93.21
2019-05-17T05:12:13.229Z,93.59
2019-05-17T05:15:13.179Z,93.89
2019-05-17T05:18:13.686Z,92.61
2019-05-17T05:21:13.113Z,93.27
2019-05-17T05:24:13.089Z,94.36
2019-05-17T05:27:13.041Z,94.46
2019-05-17T05:30:13.055Z,93.08
2019-05-17T05:33:13.217Z,94.11
2019-05-17T05:36:12.960Z,93.08
2019-05-17T05:39:12.918Z,92.63
2019-05-17T05:42:14.038Z,91.44
2019-05-17T05:45:12.872Z,90.93
2019-05-17T05:48:13.217Z,91.30
2019-05-17T05:51:13.714Z,91.30
2019-05-17T05:54:12.773Z,90.81
2019-05-17T05:57:12.875Z,91.16
2019-05-17T06:00:13.014Z,90.75
2019-05-17T06:03:12.699Z,89.62
2019-05-17T06:06:12.643Z,88.56
2019-05-17T06:09:12.586Z,89.43
2019-05-17T06:12:22.965Z,88.96
2019-05-17T06:15:13.522Z,89.12
2019-05-17T06:18:12.674Z,88.88
2019-05-17T06:21:12.463Z,87.85
2019-05-17T06:24:12.437Z,84.20
2019-05-17T06:27:12.501Z,86.24
2019-05-17T06:30:12.821Z,85.77
2019-05-17T06:33:26.685Z,87.63
2019-05-17T06:36:13.816Z,84.33
2019-05-17T06:39:12.280Z,83.00
2019-05-17T06:42:12.233Z,83.16
2019-05-17T06:45:12.533Z,85.06
2019-05-17T06:48:12.206Z,83.63
2019-05-17T06:51:12.158Z,83.40
2019-05-17T06:54:12.207Z,83.00
2019-05-17T06:57:12.750Z,82.24
2019-05-17T07:00:18.955Z,81.87
2019-05-17T07:03:13.000Z,81.68
2019-05-17T07:06:11.956Z,82.79
2019-05-17T07:09:11.948Z,82.39
2019-05-17T07:12:11.899Z,82.18
2019-05-17T07:15:11.870Z,79.11
2019-05-17T07:18:11.828Z,80.51
2019-05-17T07:21:11.817Z,80.41
2019-05-17T07:24:11.772Z,79.90
2019-05-17T07:27:11.739Z,78.98
2019-05-17T07:30:11.696Z,79.18
2019-05-17T07:33:11.691Z,77.51
2019-05-17T07:36:11.667Z,73.33
2019-05-17T07:39:11.601Z,75.27
2019-05-17T07:42:11.600Z,75.71
2019-05-17T07:45:11.539Z,79.21
2019-05-17T07:48:11.516Z,79.14
2019-05-17T07:51:11.486Z,77.34
2019-05-17T07:54:11.436Z,77.58
2019-05-17T07:57:11.436Z,77.85
2019-05-17T08:00:11.385Z,76.59
2019-05-17T08:03:13.457Z,75.37
2019-05-17T08:06:11.340Z,74.86
2019-05-17T08:09:13.749Z,77.61
2019-05-17T08:12:11.288Z,77.14
2019-05-17T08:15:11.327Z,77.92
2019-05-17T08:18:11.303Z,79.96
2019-05-17T08:21:11.168Z,79.28
2019-05-17T08:24:11.111Z,79.18
2019-05-17T08:27:11.116Z,78.53
2019-05-17T08:30:11.221Z,79.86
2019-05-17T08:33:11.336Z,79.07
2019-05-17T08:36:11.005Z,77.03
2019-05-17T08:39:10.960Z,77.03
2019-05-17T08:42:10.941Z,76.49
2019-05-17T08:45:10.897Z,78.02
2019-05-17T08:48:10.883Z,77.85
2019-05-17T08:51:25.686Z,77.30
2019-05-17T08:54:10.814Z,78.59
2019-05-17T08:57:10.787Z,76.76
2019-05-17T09:00:11.022Z,77.06
2019-05-17T09:03:11.018Z,75.91
2019-05-17T09:06:12.489Z,73.91
2019-05-17T09:09:10.636Z,75.98
2019-05-17T09:12:11.155Z,74.28
2019-05-17T09:15:10.558Z,74.96
2019-05-17T09:18:10.581Z,75.37
2019-05-17T09:21:10.496Z,74.18
2019-05-17T09:24:10.575Z,74.24
2019-05-17T09:27:10.434Z,74.55
2019-05-17T09:30:10.439Z,74.89
2019-05-17T09:33:11.235Z,71.06
2019-05-17T09:36:10.357Z,67.28
2019-05-17T09:39:10.341Z,69.30
2019-05-17T09:42:10.492Z,71.84
2019-05-17T09:45:10.251Z,71.97
2019-05-17T09:48:10.568Z,72.28
2019-05-17T09:51:10.581Z,72.96
2019-05-17T09:54:10.381Z,73.19
2019-05-17T09:57:10.140Z,73.23
2019-05-17T10:00:10.244Z,72.72
2019-05-17T10:03:10.126Z,74.11
2019-05-17T10:06:10.030Z,73.09
2019-05-17T10:09:10.001Z,73.02
2019-05-17T10:12:09.955Z,73.33
2019-05-17T10:15:10.274Z,73.33
2019-05-17T10:18:11.143Z,73.97
2019-05-17T10:21:10.457Z,74.45
2019-05-17T10:24:09.859Z,73.26
2019-05-17T10:27:10.923Z,72.62
2019-05-17T10:30:10.460Z,72.38
2019-05-17T10:33:10.166Z,73.39
2019-05-17T10:36:09.686Z,72.25
2019-05-17T10:39:10.000Z,72.58
2019-05-17T10:42:10.041Z,73.06
2019-05-17T10:45:10.978Z,73.33
2019-05-17T10:48:10.254Z,71.53
2019-05-17T10:51:10.094Z,70.65
2019-05-17T10:54:09.736Z,70.55
2019-05-17T10:57:10.403Z,71.47
2019-05-17T11:00:10.123Z,70.15
2019-05-17T11:03:09.972Z,70.79
2019-05-17T11:06:10.914Z,70.52
2019-05-17T11:09:10.235Z,72.17
2019-05-17T11:12:09.299Z,71.97
2019-05-17T11:15:11.649Z,74.24
2019-05-17T11:18:09.228Z,72.99
2019-05-17T11:21:09.244Z,72.85
2019-05-17T11:24:09.182Z,71.57
2019-05-17T11:27:09.131Z,70.89
2019-05-17T11:30:09.122Z,69.84
2019-05-17T11:33:09.086Z,70.65
2019-05-17T11:36:09.045Z,65.23
2019-05-17T11:39:09.008Z,65.80
2019-05-17T11:42:16.029Z,66.03
2019-05-17T11:45:08.942Z,65.90
2019-05-17T11:48:08.944Z,65.03
2019-05-17T11:51:08.910Z,64.90
2019-05-17T11:54:08.892Z,61.59
2019-05-17T11:57:12.209Z,58.04
2019-05-17T12:00:08.777Z,59.31
2019-05-17T12:03:08.759Z,59.08
2019-05-17T12:06:08.715Z,54.90
2019-05-17T12:09:08.715Z,56.97
2019-05-17T12:12:08.704Z,60.55
2019-05-17T12:15:08.625Z,57.83
2019-05-17T12:18:08.598Z,59.27
2019-05-17T12:21:08.553Z,55.68
2019-05-17T12:24:08.570Z,55.05
2019-05-17T12:27:08.493Z,58.47
2019-05-17T12:30:08.487Z,58.94
2019-05-17T12:33:08.449Z,60.46
2019-05-17T12:36:08.402Z,60.17
2019-05-17T12:39:08.449Z,50.72
2019-05-17T12:42:08.491Z,58.07
2019-05-17T12:45:08.327Z,52.94
2019-05-17T12:48:08.303Z,51.74
2019-05-17T12:51:08.250Z,60.31
2019-05-17T12:54:08.231Z,58.78
2019-05-17T12:57:08.179Z,53.74
2019-05-17T13:00:15.206Z,49.39
2019-05-17T13:03:08.113Z,54.80
2019-05-17T13:06:08.092Z,47.33
2019-05-17T13:09:08.067Z,51.69
2019-05-17T13:12:15.580Z,56.10
2019-05-17T13:15:07.983Z,53.50
2019-05-17T13:18:07.974Z,47.20
2019-05-17T13:21:07.934Z,45.64
2019-05-17T13:24:07.889Z,53.25
2019-05-17T13:27:15.414Z,52.19
2019-05-17T13:30:07.824Z,52.97
2019-05-17T13:33:07.812Z,51.32
2019-05-17T13:36:07.781Z,49.22
2019-05-17T13:39:14.765Z,47.19
2019-05-17T13:42:07.723Z,49.82
2019-05-17T13:45:07.693Z,54.85
2019-05-17T13:48:14.723Z,50.59
2019-05-17T13:51:07.602Z,48.85
2019-05-17T13:54:07.586Z,50.64
2019-05-17T13:57:14.590Z,52.52
2019-05-17T14:00:07.529Z,52.77
2019-05-17T14:03:07.499Z,51.46
2019-05-17T14:06:07.444Z,54.15
2019-05-17T14:09:07.447Z,53.72
2019-05-17T14:12:07.382Z,52.19
2019-05-17T14:15:07.375Z,54.25
2019-05-17T14:18:07.313Z,53.80
2019-05-17T14:21:07.329Z,52.67
2019-05-17T14:24:07.394Z,51.59
2019-05-17T14:27:07.224Z,47.39
2019-05-17T14:30:07.281Z,42.29
2019-05-17T14:33:07.193Z,47.14
2019-05-17T14:36:07.124Z,51.94
2019-05-17T14:39:07.127Z,53.72
2019-05-17T14:42:07.106Z,54.85
2019-05-17T14:45:07.050Z,54.03
2019-05-17T14:48:07.006Z,54.68
2019-05-17T14:51:06.991Z,54.45
2019-05-17T14:54:06.958Z,55.48
2019-05-17T14:57:06.937Z,55.33
2019-05-17T15:00:06.874Z,54.25
2019-05-17T15:03:07.665Z,55.00
2019-05-17T15:06:06.838Z,54.48
2019-05-17T15:09:06.778Z,55.16
2019-05-17T15:12:06.769Z,56.16
2019-05-17T15:15:06.721Z,55.79
2019-05-17T15:18:09.409Z,55.91
2019-05-17T15:21:06.666Z,55.51
2019-05-17T15:24:06.621Z,56.20
2019-05-17T15:27:06.616Z,55.46
2019-05-17T15:30:06.576Z,52.64
2019-05-17T15:33:06.534Z,52.47
2019-05-17T15:36:06.506Z,55.46
2019-05-17T15:39:06.511Z,57.37
2019-05-17T15:42:06.431Z,52.94
2019-05-17T15:45:06.405Z,48.02
2019-05-17T15:48:07.105Z,47.06
2019-05-17T15:51:06.341Z,51.74
2019-05-17T15:54:06.311Z,52.67
2019-05-17T15:57:06.305Z,50.74
2019-05-17T16:00:06.248Z,53.14
2019-05-17T16:03:06.226Z,51.84
2019-05-17T16:06:06.193Z,54.71
2019-05-17T16:09:06.185Z,55.91
2019-05-17T16:12:06.104Z,57.78
2019-05-17T16:15:06.090Z,57.94
2019-05-17T16:18:06.086Z,58.78
2019-05-17T16:21:06.099Z,59.45
2019-05-17T16:24:05.984Z,59.05
2019-05-17T16:27:05.975Z,58.45
2019-05-17T16:30:05.935Z,58.14
2019-05-17T16:33:05.904Z,59.02
2019-05-17T16:36:05.866Z,58.95
2019-05-17T16:39:08.333Z,59.28
2019-05-17T16:42:05.815Z,59.48
2019-05-17T16:45:05.770Z,61.00
2019-05-17T16:48:05.723Z,59.78
2019-05-17T16:51:05.710Z,62.24
2019-05-17T16:54:05.678Z,61.43
2019-05-17T16:57:05.642Z,62.34
2019-05-17T17:00:05.596Z,61.56
2019-05-17T17:03:05.595Z,61.66
2019-05-17T17:06:05.580Z,62.24
2019-05-17T17:09:05.535Z,62.07
2019-05-17T17:12:05.461Z,63.28
2019-05-17T17:15:05.460Z,63.10
2019-05-17T17:18:05.400Z,64.42
2019-05-17T17:21:05.430Z,63.51
2019-05-17T17:24:05.346Z,63.44
2019-05-17T17:27:05.318Z,63.44
2019-05-17T17:30:05.279Z,63.78
2019-05-17T17:33:05.260Z,63.84
2019-05-17T17:36:05.212Z,63.47
2019-05-17T17:39:05.187Z,63.75
2019-05-17T17:42:05.150Z,64.99
2019-05-17T17:45:05.141Z,63.47
2019-05-17T17:48:05.081Z,65.02
2019-05-17T17:51:05.069Z,64.99
2019-05-17T17:54:05.037Z,65.53
2019-05-17T17:57:04.982Z,65.93
2019-05-17T18:00:04.973Z,66.67
2019-05-17T18:03:04.938Z,67.55
2019-05-17T18:06:04.911Z,67.58
2019-05-17T18:09:04.853Z,67.99
2019-05-17T18:12:04.855Z,68.52
2019-05-17T18:15:06.483Z,68.83
2019-05-17T18:18:04.768Z,68.73
2019-05-17T18:21:04.751Z,68.02
2019-05-17T18:24:04.706Z,69.27
2019-05-17T18:27:04.696Z,69.68
2019-05-17T18:30:04.624Z,69.78
2019-05-17T18:33:04.611Z,70.52
2019-05-17T18:36:04.559Z,70.83
2019-05-17T18:39:04.546Z,71.88
2019-05-17T18:42:04.505Z,71.73
2019-05-17T18:45:04.490Z,71.47
2019-05-17T18:48:04.446Z,72.08
2019-05-17T18:51:04.406Z,71.67
2019-05-17T18:54:04.374Z,72.58
2019-05-17T18:57:04.343Z,72.58
2019-05-17T19:00:04.325Z,72.69
2019-05-17T19:03:04.279Z,73.13
2019-05-17T19:06:04.259Z,74.24
2019-05-17T19:09:04.205Z,74.28
2019-05-17T19:12:04.189Z,75.09
2019-05-17T19:15:04.152Z,75.23
2019-05-17T19:18:04.116Z,75.73
2019-05-17T19:21:04.085Z,75.94
2019-05-17T19:24:04.053Z,76.55
2019-05-17T19:27:04.019Z,76.18
2019-05-17T19:30:03.996Z,76.55
2019-05-17T19:33:03.947Z,76.38
2019-05-17T19:36:03.934Z,77.09
2019-05-17T19:39:03.875Z,78.05
2019-05-17T19:42:03.856Z,77.74
2019-05-17T19:45:03.840Z,77.94
2019-05-17T19:48:03.801Z,77.98
2019-05-17T19:51:03.757Z,78.49
2019-05-17T19:54:03.715Z,79.61
2019-05-17T19:57:03.705Z,79.85
2019-05-17T20:00:03.668Z,80.05
2019-05-17T20:03:03.653Z,80.46
2019-05-17T20:06:03.768Z,80.91
2019-05-17T20:09:10.619Z,81.88
2019-05-17T20:12:03.533Z,81.72
2019-05-17T20:15:16.643Z,81.93
2019-05-17T20:18:04.486Z,80.87
2019-05-17T20:21:03.439Z,80.66
2019-05-17T20:24:03.418Z,80.46
2019-05-17T20:27:03.365Z,80.46
2019-05-17T20:30:03.424Z,80.26
2019-05-17T20:33:03.323Z,80.26
2019-05-17T20:36:03.288Z,79.95
2019-05-17T20:39:03.228Z,80.36
2019-05-17T20:42:03.207Z,81.07
2019-05-17T20:45:03.181Z,80.70
2019-05-17T20:48:03.146Z,80.91
2019-05-17T20:51:03.092Z,81.07
2019-05-17T20:54:03.074Z,80.77
2019-05-17T20:57:03.032Z,80.66
2019-05-17T21:00:03.013Z,80.36
2019-05-17T21:03:02.974Z,79.85
2019-05-17T21:06:02.947Z,80.60
2019-05-17T21:09:02.896Z,80.26
2019-05-17T21:12:02.876Z,80.05
2019-05-17T21:15:02.878Z,80.50
2019-05-17T21:18:02.817Z,80.19
2019-05-17T21:21:02.780Z,79.95
2019-05-17T21:24:02.747Z,80.46
2019-05-17T21:27:02.719Z,80.36
2019-05-17T21:30:02.671Z,79.54
2019-05-17T21:33:02.708Z,79.54
2019-05-17T21:36:02.602Z,79.68
2019-05-17T21:39:02.590Z,79.85
2019-05-17T21:42:02.550Z,79.27
2019-05-17T21:45:02.522Z,79.03
2019-05-17T21:48:02.484Z,79.79
2019-05-17T21:51:02.440Z,79.68
2019-05-17T21:54:02.415Z,79.79
2019-05-17T21:57:02.372Z,80.19
2019-05-17T22:00:03.222Z,79.79
2019-05-17T22:03:02.323Z,79.38
2019-05-17T22:06:02.299Z,79.68
2019-05-17T22:09:02.244Z,80.19
2019-05-17T22:12:02.257Z,80.09
2019-05-17T22:15:02.211Z,79.72
2019-05-17T22:18:02.145Z,80.40
2019-05-17T22:21:02.135Z,80.43
2019-05-17T22:24:02.109Z,80.54
2019-05-17T22:27:02.062Z,80.64
2019-05-17T22:30:02.043Z,81.96
2019-05-17T22:33:01.982Z,82.61
2019-05-17T22:36:01.974Z,83.33
2019-05-17T22:39:01.913Z,82.92
2019-05-17T22:42:01.897Z,83.02
2019-05-17T22:45:01.850Z,83.26
2019-05-17T22:48:01.839Z,83.06
2019-05-17T22:51:01.793Z,82.96
2019-05-17T22:54:01.803Z,83.63
2019-05-17T22:57:01.730Z,83.57
2019-05-17T23:00:01.681Z,83.57
2019-05-17T23:03:01.672Z,84.12
2019-05-17T23:06:01.633Z,85.04
2019-05-17T23:09:01.621Z,85.79
2019-05-17T23:12:01.550Z,86.85
2019-05-17T23:15:01.546Z,86.35
2019-05-17T23:18:01.483Z,87.37
2019-05-17T23:21:01.501Z,86.14
2019-05-17T23:24:01.414Z,85.79
2019-05-17T23:27:01.422Z,86.00
2019-05-17T23:30:01.362Z,86.00
2019-05-17T23:33:01.367Z,87.06
2019-05-17T23:36:01.316Z,87.57
2019-05-17T23:39:01.271Z,87.67
2019-05-17T23:42:01.241Z,88.23
2019-05-17T23:45:01.206Z,88.74
2019-05-17T23:48:01.150Z,87.10
2019-05-17T23:51:01.150Z,90.31
2019-05-17T23:54:01.081Z,89.70
2019-05-17T23:57:01.072Z,91.17
